Time;durP1;ratioP1;P1;durP2;ratioP2;P2;SDS_P1;SDS_P2;PMS_P1;PMS_P2;Temp;Humidity;BMP_temperature;BMP_pressure;BME280_temperature;BME280_humidity;BME280_pressure;Samples;Min_cycle;Max_cycle;Signal;HPM_P1;HPM_P2
2022/08/29 00:00:14;;;;;;;31.87;4.90;;;;;;;-143.84;37.26;45001.47;5134605;27;20430;-81
2022/08/29 00:02:41;;;;;;;21.23;5.20;;;;;;;-143.84;37.14;44986.22;5134772;27;20495;-81
2022/08/29 00:05:08;;;;;;;34.97;4.13;;;;;;;-143.84;36.98;44976.72;5134561;27;20483;-80
2022/08/29 00:07:37;;;;;;;36.93;5.87;;;;;;;-143.84;36.96;45012.88;5135107;27;20434;-80
2022/08/29 00:10:05;;;;;;;39.17;5.57;;;;;;;-143.84;36.97;44990.03;5134498;27;20442;-81
2022/08/29 00:12:32;;;;;;;39.23;5.80;;;;;;;-143.84;37.63;45014.78;5134346;27;20535;-81
2022/08/29 00:15:00;;;;;;;32.90;6.60;;;;;;;-143.84;37.38;44990.03;5134623;27;20438;-81
2022/08/29 00:17:27;;;;;;;62.63;5.40;;;;;;;-143.84;37.92;44997.66;5134350;27;20431;-80
2022/08/29 00:19:54;;;;;;;30.00;6.47;;;;;;;-143.84;37.67;44988.13;5134670;27;20426;-81
2022/08/29 00:22:21;;;;;;;43.33;6.03;;;;;;;-143.84;37.86;45014.78;5133660;27;20441;-75
2022/08/29 00:24:50;;;;;;;51.43;6.40;;;;;;;-143.84;37.84;44995.75;5133924;27;20434;-75
2022/08/29 00:27:17;;;;;;;36.43;5.50;;;;;;;-143.84;37.64;44976.72;5134001;27;20415;-75
2022/08/29 00:29:44;;;;;;;28.70;5.70;;;;;;;-143.84;37.48;44997.66;5133919;27;20479;-75
2022/08/29 00:32:11;;;;;;;42.37;6.00;;;;;;;-143.84;37.78;45003.38;5133377;27;20470;-75
2022/08/29 00:34:38;;;;;;;33.03;6.30;;;;;;;-143.84;37.64;44990.03;5133495;27;20487;-75
2022/08/29 00:37:06;;;;;;;57.20;6.10;;;;;;;-143.84;38.40;44984.31;5132797;27;20450;-75
2022/08/29 00:39:33;;;;;;;32.93;5.23;;;;;;;-143.84;38.56;44999.56;5132644;27;20506;-74
2022/08/29 00:42:02;;;;;;;29.17;5.73;;;;;;;-143.84;38.38;44974.81;5132887;27;20917;-75
2022/08/29 00:44:29;;;;;;;34.50;5.00;;;;;;;-143.84;37.95;44999.56;5132734;27;20438;-75
2022/08/29 00:46:59;;;;;;;41.23;5.53;;;;;;;-143.84;38.39;44974.81;5133002;27;20441;-75
2022/08/29 00:49:31;;;;;;;36.20;6.70;;;;;;;-143.84;38.05;44997.66;5133008;27;20454;-75
2022/08/29 00:52:06;;;;;;;36.20;6.20;;;;;;;-143.84;38.54;44997.66;5133020;27;20465;-75
2022/08/29 00:54:34;;;;;;;61.30;7.53;;;;;;;-143.84;38.49;45007.19;5132125;27;20446;-75
2022/08/29 00:57:02;;;;;;;40.07;6.80;;;;;;;-143.84;38.46;45009.09;5132406;27;20426;-74
2022/08/29 00:59:34;;;;;;;59.67;5.60;;;;;;;-143.84;38.65;45003.38;5131558;27;20434;-74
2022/08/29 01:02:03;;;;;;;39.87;5.77;;;;;;;-143.84;38.72;44990.03;5130750;27;20660;-74
2022/08/29 01:04:31;;;;;;;33.83;6.37;;;;;;;-143.84;38.55;44984.31;5130718;27;20445;-75
2022/08/29 01:06:59;;;;;;;30.57;5.40;;;;;;;-143.84;38.98;45022.41;5131474;27;20434;-75
2022/08/29 01:09:27;;;;;;;34.07;5.70;;;;;;;-143.84;38.92;45003.38;5131438;27;20845;-75
2022/08/29 01:14:44;;;;;;;31.07;5.93;;;;;;;-143.84;39.25;45003.38;5131152;27;20414;-75
2022/08/29 01:17:11;;;;;;;25.80;5.90;;;;;;;-143.84;39.28;44991.94;5131371;27;20434;-75
2022/08/29 01:19:48;;;;;;;46.43;6.40;;;;;;;-143.84;39.84;45014.78;5131814;27;20442;-75
2022/08/29 01:22:33;;;;;;;30.50;6.13;;;;;;;-143.84;40.05;44980.53;5131676;27;20468;-75
2022/08/29 01:25:06;;;;;;;35.00;5.97;;;;;;;-143.84;39.41;45014.78;5131926;27;20504;-75
2022/08/29 01:27:37;;;;;;;63.60;7.97;;;;;;;-143.84;39.77;44988.13;5132064;27;20530;-75
2022/08/29 01:30:06;;;;;;;27.80;5.80;;;;;;;-143.84;39.35;44995.75;5131779;27;20989;-75
2022/08/29 01:32:34;;;;;;;56.67;6.90;;;;;;;-143.84;39.32;45001.47;5133036;27;20469;-81
2022/08/29 01:35:01;;;;;;;38.43;6.63;;;;;;;-143.84;39.72;45009.09;5133262;27;20438;-82
2022/08/29 01:37:33;;;;;;;38.20;6.43;;;;;;;-143.84;39.35;45003.38;5132988;27;20423;-82
2022/08/29 01:40:01;;;;;;;27.33;5.37;;;;;;;-143.84;39.49;44976.72;5132257;27;20426;-80
2022/08/29 01:42:28;;;;;;;42.27;7.10;;;;;;;-143.84;38.99;44982.41;5130923;27;20507;-73
2022/08/29 01:44:58;;;;;;;31.17;6.43;;;;;;;-143.84;38.90;44997.66;5130310;28;20495;-73
2022/08/29 01:47:29;;;;;;;38.57;6.13;;;;;;;-143.84;38.87;44995.75;5130007;28;20434;-73
2022/08/29 01:49:56;;;;;;;38.53;6.50;;;;;;;-143.84;39.29;44993.84;5129611;28;21071;-71
2022/08/29 01:52:24;;;;;;;43.40;7.60;;;;;;;-143.84;39.04;45005.28;5129811;28;20481;-71
2022/08/29 01:54:51;;;;;;;33.53;5.60;;;;;;;-143.84;38.72;44986.22;5129829;28;20500;-72
2022/08/29 01:57:20;;;;;;;32.80;6.20;;;;;;;-143.84;38.61;45030.03;5129683;28;20430;-72
2022/08/29 01:59:48;;;;;;;34.17;7.60;;;;;;;-143.84;38.49;44988.13;5129502;28;20450;-71
2022/08/29 02:02:18;;;;;;;41.07;6.30;;;;;;;-143.84;38.02;44982.41;5130108;28;20912;-72
2022/08/29 02:04:47;;;;;;;30.77;5.90;;;;;;;-143.84;38.08;44978.63;5129404;27;20491;-72
2022/08/29 02:07:16;;;;;;;46.93;5.40;;;;;;;-143.84;38.40;44980.53;5132589;27;20527;-72
2022/08/29 02:09:44;;;;;;;44.97;6.93;;;;;;;-143.84;38.37;44991.94;5132573;27;20446;-72
2022/08/29 02:12:12;;;;;;;40.17;5.73;;;;;;;-143.84;37.99;45020.50;5133332;27;21068;-72
2022/08/29 02:14:41;;;;;;;46.30;6.60;;;;;;;-143.84;38.20;44993.84;5133103;27;20438;-72
2022/08/29 02:17:08;;;;;;;38.57;6.10;;;;;;;-143.84;37.87;44934.81;5133050;27;20430;-72
2022/08/29 02:19:37;;;;;;;34.47;6.43;;;;;;;-143.84;37.58;44988.13;5133749;27;20441;-72
2022/08/29 02:22:05;;;;;;;45.27;6.20;;;;;;;-143.84;37.10;44963.38;5133694;27;20471;-72
2022/08/29 02:24:33;;;;;;;35.20;6.40;;;;;;;-143.84;37.47;44986.22;5133808;27;20442;-72
2022/08/29 02:27:00;;;;;;;46.17;6.23;;;;;;;-143.84;37.21;44991.94;5133755;27;20442;-72
2022/08/29 02:29:28;;;;;;;27.33;5.20;;;;;;;-143.84;37.00;44967.19;5133680;27;20490;-71
2022/08/29 02:31:56;;;;;;;40.57;6.30;;;;;;;-143.84;37.04;44988.13;5133670;27;20514;-71
2022/08/29 02:34:23;;;;;;;63.10;5.53;;;;;;;-143.84;36.45;44978.63;5133178;27;20454;-71
2022/08/29 02:36:52;;;;;;;34.27;5.53;;;;;;;-143.84;36.44;44961.47;5133113;27;20442;-71
2022/08/29 02:39:19;;;;;;;45.17;5.20;;;;;;;-143.84;36.15;44988.13;5133402;27;20438;-71
2022/08/29 02:41:46;;;;;;;28.57;5.80;;;;;;;-143.84;36.02;44982.41;5133400;27;20851;-71
2022/08/29 02:44:13;;;;;;;25.10;5.40;;;;;;;-143.84;36.33;44984.31;5132978;27;20434;-72
2022/08/29 02:46:40;;;;;;;51.90;6.70;;;;;;;-143.84;36.11;44969.09;5133016;27;20442;-71
2022/08/29 02:49:09;;;;;;;37.50;6.10;;;;;;;-143.84;35.93;44978.63;5133272;27;20932;-71
2022/08/29 02:51:36;;;;;;;53.60;6.20;;;;;;;-143.84;35.81;44995.75;5133484;27;20438;-71
2022/08/29 02:54:04;;;;;;;46.50;6.80;;;;;;;-143.84;35.85;44990.03;5132965;27;21010;-71
2022/08/29 02:56:31;;;;;;;38.67;7.23;;;;;;;-143.84;36.25;44995.75;5114562;27;20449;-71
2022/08/29 02:59:00;;;;;;;29.97;7.50;;;;;;;-143.84;36.83;44957.66;5133221;27;20445;-71
2022/08/29 03:01:29;;;;;;;44.07;6.03;;;;;;;-143.84;37.49;44976.72;5133092;27;20531;-72
2022/08/29 03:03:57;;;;;;;39.50;6.60;;;;;;;-143.84;37.71;44993.84;5132934;27;20867;-72
2022/08/29 03:06:26;;;;;;;49.83;8.20;;;;;;;-143.84;37.41;44978.63;5132675;27;20892;-72
2022/08/29 03:08:53;;;;;;;30.23;7.17;;;;;;;-143.84;37.47;44986.22;5132765;27;20511;-72
2022/08/29 03:11:20;;;;;;;53.43;6.93;;;;;;;-143.84;37.47;44980.53;5132734;27;20473;-72
2022/08/29 03:13:47;;;;;;;33.47;6.30;;;;;;;-143.84;37.88;44982.41;5132541;27;20478;-72
2022/08/29 03:16:15;;;;;;;62.87;9.10;;;;;;;-143.84;38.65;45003.38;5131974;27;20471;-72
2022/08/29 03:18:42;;;;;;;48.70;9.23;;;;;;;-143.84;39.26;44967.19;5132416;27;20434;-72
2022/08/29 03:21:16;;;;;;;58.83;7.23;;;;;;;-143.84;40.04;44988.13;5132642;27;20434;-72
2022/08/29 03:23:44;;;;;;;48.37;7.33;;;;;;;-143.84;40.46;44980.53;5132678;27;20537;-72
2022/08/29 03:26:11;;;;;;;30.80;5.97;;;;;;;-143.84;40.97;44974.81;5132650;27;20989;-72
2022/08/29 03:28:38;;;;;;;34.40;6.40;;;;;;;-143.84;41.18;44988.13;5132431;27;20794;-72
2022/08/29 03:31:06;;;;;;;51.53;7.27;;;;;;;-143.84;41.53;45001.47;5132353;27;20475;-72
2022/08/29 03:33:33;;;;;;;37.13;6.80;;;;;;;-143.84;42.14;44963.38;5132232;27;20530;-72
2022/08/29 03:36:00;;;;;;;38.70;7.00;;;;;;;-143.84;42.11;44995.75;5132225;27;20422;-72
2022/08/29 03:38:27;;;;;;;31.70;6.13;;;;;;;-143.84;42.47;44971.00;5131970;27;20438;-72
2022/08/29 03:40:56;;;;;;;35.57;6.83;;;;;;;-143.84;42.45;44974.81;5132208;27;20438;-72
2022/08/29 03:43:23;;;;;;;62.63;8.30;;;;;;;-143.84;42.50;44999.56;5132167;27;20453;-72
2022/08/29 03:45:50;;;;;;;54.13;8.53;;;;;;;-143.84;42.52;44969.09;5132287;27;20438;-72
2022/08/29 03:48:18;;;;;;;41.30;7.47;;;;;;;-143.84;42.25;44980.53;5132077;27;20442;-72
2022/08/29 03:50:45;;;;;;;40.57;6.87;;;;;;;-143.84;41.64;44965.28;5131832;27;20537;-72
2022/08/29 03:53:12;;;;;;;34.83;7.00;;;;;;;-143.84;41.54;44951.97;5132121;27;20481;-72
2022/08/29 03:55:40;;;;;;;54.90;8.20;;;;;;;-143.84;41.74;44999.56;5132171;27;20498;-72
2022/08/29 03:58:08;;;;;;;34.57;7.80;;;;;;;-143.84;41.75;44978.63;5131902;27;20442;-72
2022/08/29 04:00:36;;;;;;;49.93;7.30;;;;;;;-143.84;42.16;44961.47;5131657;27;20495;-72
2022/08/29 04:03:03;;;;;;;33.30;6.97;;;;;;;-143.84;42.27;44988.13;5116222;27;20479;-72
2022/08/29 04:05:31;;;;;;;30.87;6.80;;;;;;;-143.84;42.35;44971.00;5110882;28;20999;-72
2022/08/29 04:07:59;;;;;;;37.63;6.20;;;;;;;-143.84;42.59;44974.81;5111349;28;20467;-72
2022/08/29 04:10:28;;;;;;;37.93;7.40;;;;;;;-143.84;42.87;44972.91;5111007;28;20429;-72
2022/08/29 04:12:56;;;;;;;36.27;6.33;;;;;;;-143.84;43.03;44969.09;5110781;28;21041;-71
2022/08/29 04:15:27;;;;;;;35.73;7.23;;;;;;;-143.84;42.82;44972.91;5114227;27;22183;-72
2022/08/29 04:17:56;;;;;;;33.67;7.80;;;;;;;-143.84;42.84;44963.38;5127891;27;20443;-72
2022/08/29 04:20:26;;;;;;;42.33;7.73;;;;;;;-143.84;43.05;44984.31;5131344;27;20441;-72
2022/08/29 04:22:55;;;;;;;34.27;6.97;;;;;;;-143.84;43.08;44957.66;5128820;27;20430;-72
2022/08/29 04:25:25;;;;;;;32.73;8.07;;;;;;;-143.84;43.22;44976.72;5130483;27;20443;-72
2022/08/29 04:27:54;;;;;;;42.27;7.83;;;;;;;-143.84;43.72;44955.75;5127603;27;20442;-72
2022/08/29 04:30:23;;;;;;;33.87;7.80;;;;;;;-143.84;43.59;44963.38;5129448;27;20499;-72
2022/08/29 04:32:52;;;;;;;34.97;7.43;;;;;;;-143.84;44.10;44944.34;5111605;27;20861;-72
2022/08/29 04:35:20;;;;;;;37.60;7.40;;;;;;;-143.84;44.09;44932.91;5129445;27;20435;-72
2022/08/29 04:37:47;;;;;;;43.53;7.60;;;;;;;-143.84;44.01;44936.72;5123480;27;20441;-72
2022/08/29 04:40:17;;;;;;;37.20;8.27;;;;;;;-143.84;44.40;44932.91;5129548;27;20449;-72
2022/08/29 04:42:45;;;;;;;30.03;6.87;;;;;;;-143.84;43.38;44978.63;5128840;27;20439;-72
2022/08/29 04:45:14;;;;;;;47.80;8.03;;;;;;;-143.84;42.87;44942.44;5129264;27;20442;-72
2022/08/29 04:47:42;;;;;;;58.73;6.87;;;;;;;-143.84;43.30;44948.16;5126789;27;20902;-72
2022/08/29 04:50:13;;;;;;;30.53;7.63;;;;;;;-143.84;43.22;44915.78;5129115;27;20795;-72
2022/08/29 04:52:41;;;;;;;33.83;6.53;;;;;;;-143.84;42.91;44953.88;5129056;27;20438;-72
2022/08/29 04:55:10;;;;;;;31.03;6.57;;;;;;;-143.84;43.76;44942.44;5129037;27;20462;-72
2022/08/29 04:57:38;;;;;;;40.07;6.37;;;;;;;-143.84;42.69;44917.69;5128847;27;20438;-72
2022/08/29 05:00:10;;;;;;;28.50;5.57;;;;;;;-143.84;43.56;44927.19;5128755;27;20480;-72
2022/08/29 05:02:38;;;;;;;39.70;6.83;;;;;;;-143.84;42.14;44898.66;5129764;27;20811;-73
2022/08/29 05:05:07;;;;;;;37.73;6.33;;;;;;;-143.84;42.10;44923.41;5129612;27;20429;-72
2022/08/29 05:07:36;;;;;;;33.97;7.03;;;;;;;-143.84;42.68;44873.88;5130035;27;20932;-72
2022/08/29 05:10:08;;;;;;;29.37;7.23;;;;;;;-143.84;42.23;44877.69;5127268;27;20442;-72
2022/08/29 05:12:36;;;;;;;42.33;7.20;;;;;;;-143.84;42.28;44879.59;5129517;27;20458;-72
2022/08/29 05:15:05;;;;;;;47.83;7.00;;;;;;;-143.84;41.59;44925.31;5129861;27;20505;-72
2022/08/29 05:17:32;;;;;;;26.17;6.60;;;;;;;-143.84;41.63;44870.09;5130219;27;20491;-72
2022/08/29 05:19:59;;;;;;;37.27;6.87;;;;;;;-143.84;41.77;44891.03;5130075;27;21064;-72
2022/08/29 05:22:27;;;;;;;48.87;7.30;;;;;;;-143.84;42.17;44881.50;5130180;27;20442;-72
2022/08/29 05:24:56;;;;;;;34.87;5.67;;;;;;;-143.84;42.02;44873.88;5130207;27;20477;-72
2022/08/29 05:27:23;;;;;;;34.87;6.63;;;;;;;-143.84;43.12;44879.59;5129778;27;20506;-72
2022/08/29 05:29:51;;;;;;;30.80;7.03;;;;;;;-143.84;42.21;44877.69;5129728;27;20776;-72
2022/08/29 05:32:20;;;;;;;42.20;6.37;;;;;;;-143.84;40.68;44885.31;5129739;27;20434;-73
2022/08/29 05:34:49;;;;;;;29.63;5.93;;;;;;;-143.84;40.54;44856.75;5130124;27;20836;-72
2022/08/29 05:37:19;;;;;;;36.27;6.30;;;;;;;-143.84;40.14;44849.13;5130132;27;21030;-72
2022/08/29 05:39:48;;;;;;;30.67;6.70;;;;;;;-143.84;39.63;44830.09;5129584;27;20438;-72
2022/08/29 05:42:20;;;;;;;37.20;6.70;;;;;;;-143.84;39.71;44858.66;5129699;27;20434;-72
2022/08/29 05:44:48;;;;;;;30.53;5.90;;;;;;;-143.84;39.30;44858.66;5129878;27;20502;-72
2022/08/29 05:47:17;;;;;;;23.87;6.73;;;;;;;-143.84;39.36;44862.47;5129933;28;20453;-73
2022/08/29 05:49:46;;;;;;;33.60;5.83;;;;;;;-143.84;40.13;44860.56;5129591;28;21062;-72
2022/08/29 05:52:15;;;;;;;28.87;5.97;;;;;;;-143.84;39.77;44845.31;5129568;28;20499;-72
2022/08/29 05:54:43;;;;;;;49.23;7.03;;;;;;;-143.84;39.75;44858.66;5129677;28;20490;-72
2022/08/29 05:57:12;;;;;;;35.30;6.70;;;;;;;-143.84;39.68;44862.47;5129761;28;20442;-72
2022/08/29 05:59:41;;;;;;;27.03;6.00;;;;;;;-143.84;40.20;44851.03;5129618;28;20511;-72
2022/08/29 06:02:10;;;;;;;39.27;6.83;;;;;;;-143.84;39.46;44839.63;5129521;28;20438;-72
2022/08/29 06:04:38;;;;;;;33.43;6.23;;;;;;;-143.84;39.08;44866.28;5129576;28;20442;-72
2022/08/29 06:07:07;;;;;;;45.80;6.83;;;;;;;-143.84;38.67;44851.03;5129525;28;20442;-72
2022/08/29 06:09:35;;;;;;;33.37;7.07;;;;;;;-143.84;39.46;44811.06;5129596;28;20434;-72
2022/08/29 06:12:03;;;;;;;39.90;7.37;;;;;;;-143.84;39.32;44807.25;5129656;28;20477;-72
2022/08/29 06:14:30;;;;;;;38.70;6.60;;;;;;;-143.84;38.98;44826.28;5129698;28;20470;-72
2022/08/29 06:16:59;;;;;;;35.67;6.10;;;;;;;-143.84;38.72;44833.91;5129744;28;20442;-72
2022/08/29 06:19:28;;;;;;;34.30;6.93;;;;;;;-143.84;38.75;44812.97;5129405;28;20852;-72
2022/08/29 06:21:55;;;;;;;40.00;7.83;;;;;;;-143.84;38.99;44820.56;5129525;28;20456;-72
2022/08/29 06:24:22;;;;;;;41.37;6.80;;;;;;;-143.84;39.20;44843.44;5129325;28;20431;-72
2022/08/29 06:26:50;;;;;;;46.47;7.00;;;;;;;-143.84;38.81;44847.22;5129068;28;20489;-72
2022/08/29 06:29:17;;;;;;;31.97;7.50;;;;;;;-143.84;38.75;44805.34;5129701;28;20442;-72
2022/08/29 06:31:44;;;;;;;44.40;6.27;;;;;;;-143.84;39.23;44795.81;5129580;28;21020;-72
2022/08/29 06:34:13;;;;;;;42.40;6.70;;;;;;;-143.84;38.50;44820.56;5129011;28;20999;-72
2022/08/29 06:36:41;;;;;;;34.03;6.80;;;;;;;-143.84;37.78;44778.69;5128287;28;21020;-72
2022/08/29 06:39:11;;;;;;;39.77;7.07;;;;;;;-143.84;36.64;44792.00;5128196;28;20442;-72
2022/08/29 06:41:42;;;;;;;43.77;6.90;;;;;;;-143.84;37.21;44778.69;5128712;28;20463;-72
2022/08/29 06:44:10;;;;;;;55.23;8.60;;;;;;;-143.84;37.27;44767.25;5128902;28;20479;-72
2022/08/29 06:46:40;;;;;;;36.97;6.97;;;;;;;-143.84;36.92;44801.53;5128735;28;20458;-72
2022/08/29 06:49:09;;;;;;;41.73;7.53;;;;;;;-143.84;36.69;44786.31;5129384;28;20502;-72
2022/08/29 06:51:40;;;;;;;48.50;7.10;;;;;;;-143.84;36.99;44793.91;5130127;27;20430;-73
2022/08/29 06:54:09;;;;;;;45.90;8.13;;;;;;;-143.84;37.07;44782.50;5132859;27;20500;-72
2022/08/29 06:56:38;;;;;;;54.07;7.90;;;;;;;-143.84;37.11;44812.97;5132699;27;20433;-72
2022/08/29 06:59:06;;;;;;;45.83;8.07;;;;;;;-143.84;37.57;44797.72;5133082;27;20437;-72
2022/08/29 07:01:33;;;;;;;43.13;8.60;;;;;;;-143.84;37.19;44780.59;5132764;27;20445;-72
2022/08/29 07:04:02;;;;;;;32.00;7.57;;;;;;;-143.84;37.27;44788.22;5132799;27;20434;-72
2022/08/29 07:06:29;;;;;;;28.60;7.67;;;;;;;-143.84;36.52;44772.97;5132624;27;20449;-72
2022/08/29 07:08:59;;;;;;;54.80;7.93;;;;;;;-143.84;35.94;44799.63;5132569;27;20496;-73
2022/08/29 07:11:29;;;;;;;47.53;7.20;;;;;;;-143.84;36.44;44759.66;5132335;27;21105;-72
2022/08/29 07:13:57;;;;;;;45.50;8.80;;;;;;;-143.84;35.47;44803.44;5132261;27;20572;-72
2022/08/29 07:16:25;;;;;;;34.47;8.30;;;;;;;-143.84;36.24;44811.06;5132511;27;21176;-72
2022/08/29 07:18:52;;;;;;;49.60;8.60;;;;;;;-143.84;35.65;44786.31;5132189;27;20491;-72
2022/08/29 07:21:21;;;;;;;59.43;9.90;;;;;;;-143.84;35.37;44778.69;5132399;27;20434;-72
2022/08/29 07:23:49;;;;;;;47.53;9.63;;;;;;;-143.84;35.93;44832.00;5132450;27;20982;-73
2022/08/29 07:26:20;;;;;;;59.30;12.00;;;;;;;-143.84;35.08;44820.56;5132333;27;21000;-72
2022/08/29 07:28:48;;;;;;;64.73;16.47;;;;;;;-143.84;36.02;44822.47;5132275;27;20446;-72
2022/08/29 07:31:15;;;;;;;63.97;13.47;;;;;;;-143.84;36.96;44801.53;5132163;27;20817;-72
2022/08/29 07:33:42;;;;;;;44.87;13.70;;;;;;;-143.84;38.15;44820.56;5131860;27;20434;-73
2022/08/29 07:36:10;;;;;;;51.67;10.73;;;;;;;-143.84;39.57;44797.72;5132180;27;20446;-72
2022/08/29 07:38:38;;;;;;;47.57;9.57;;;;;;;-143.84;38.52;44824.38;5132291;27;20438;-72
2022/08/29 07:41:08;;;;;;;51.77;10.00;;;;;;;-143.84;38.92;44860.56;5132032;27;20445;-72
2022/08/29 07:43:37;;;;;;;41.50;8.60;;;;;;;-143.84;40.00;44833.91;5113957;27;20487;-72
2022/08/29 07:46:07;;;;;;;39.37;7.10;;;;;;;-143.84;40.37;44845.31;5131789;27;21008;-73
2022/08/29 07:48:35;;;;;;;41.03;7.27;;;;;;;-143.84;41.45;44854.84;5131861;27;20794;-73
2022/08/29 07:51:02;;;;;;;26.03;6.83;;;;;;;-143.84;42.23;44820.56;5112533;27;20455;-72
2022/08/29 07:53:29;;;;;;;37.17;8.47;;;;;;;-143.84;41.37;44862.47;5110949;28;20443;-72
2022/08/29 07:55:57;;;;;;;35.40;5.80;;;;;;;-143.84;41.72;44851.03;5110992;28;20487;-72
2022/08/29 07:58:26;;;;;;;34.50;7.23;;;;;;;-143.84;40.79;44871.97;5110623;28;20521;-72
2022/08/29 08:00:55;;;;;;;52.87;6.63;;;;;;;-143.84;39.92;44892.94;5111022;28;20446;-72
2022/08/29 08:03:23;;;;;;;31.17;6.97;;;;;;;-143.84;38.61;44843.44;5109571;28;20451;-72
2022/08/29 08:05:50;;;;;;;33.93;6.80;;;;;;;-143.84;38.12;44843.44;5111045;28;20424;-73
2022/08/29 08:08:17;;;;;;;46.30;7.07;;;;;;;-143.84;37.98;44851.03;5110702;28;20822;-73
2022/08/29 08:10:45;;;;;;;35.53;6.47;;;;;;;-143.84;38.15;44830.09;5110894;28;20944;-73
2022/08/29 08:13:12;;;;;;;45.27;6.67;;;;;;;-143.84;36.76;44828.19;5110484;28;21025;-73
2022/08/29 08:15:40;;;;;;;47.10;6.23;;;;;;;-143.84;36.41;44849.13;5110893;28;20470;-72
2022/08/29 08:18:09;;;;;;;38.23;6.30;;;;;;;-143.84;36.21;44830.09;5111207;28;21196;-72
2022/08/29 08:20:36;;;;;;;50.83;6.53;;;;;;;-143.84;36.13;44807.25;5110597;28;20504;-73
2022/08/29 08:23:04;;;;;;;37.73;6.70;;;;;;;-143.84;35.80;44833.91;5110154;28;20484;-73
2022/08/29 08:25:31;;;;;;;36.00;6.13;;;;;;;-143.84;35.76;44812.97;5110547;28;20445;-75
2022/08/29 08:27:58;;;;;;;22.60;6.60;;;;;;;-143.84;35.94;44849.13;5113740;27;20994;-73
2022/08/29 08:30:26;;;;;;;42.10;6.57;;;;;;;-143.84;35.88;44822.47;5131203;27;20438;-73
2022/08/29 08:32:53;;;;;;;45.23;6.43;;;;;;;-143.84;34.31;44816.78;5128793;27;20441;-73
2022/08/29 08:35:22;;;;;;;49.33;7.20;;;;;;;-143.84;33.77;44790.13;5149491;27;21086;-72
2022/08/29 08:37:49;;;;;;;46.70;8.20;;;;;;;-143.84;33.41;44771.06;5141756;27;20445;-72
2022/08/29 08:40:21;;;;;;;48.13;6.90;;;;;;;-143.84;33.23;44803.44;5132809;27;20450;-72
2022/08/29 08:42:49;;;;;;;31.43;5.57;;;;;;;-143.84;33.94;44830.09;5134645;27;20449;-72
2022/08/29 08:45:18;;;;;;;36.83;6.60;;;;;;;-143.84;33.77;44797.72;5132898;27;20460;-72
2022/08/29 08:47:50;;;;;;;41.40;6.40;;;;;;;-143.84;34.16;44792.00;5115313;27;20447;-72
2022/08/29 08:50:25;;;;;;;26.67;5.83;;;;;;;-143.84;34.13;44811.06;5115015;27;20446;-72
2022/08/29 08:52:58;;;;;;;24.00;6.50;;;;;;;-143.84;33.57;44809.16;5114673;27;20470;-72
2022/08/29 08:55:35;;;;;;;38.70;6.97;;;;;;;-143.84;33.78;44816.78;5113818;27;20589;-72
2022/08/29 08:58:10;;;;;;;61.43;7.10;;;;;;;-143.84;32.92;44803.44;5114715;27;20470;-73
2022/08/29 09:00:43;;;;;;;42.87;6.97;;;;;;;-143.84;33.03;44809.16;5114293;27;20486;-72
2022/08/29 09:03:25;;;;;;;29.27;5.90;;;;;;;-143.84;32.43;44793.91;5142822;27;20495;-72
2022/08/29 09:06:07;;;;;;;27.17;6.00;;;;;;;-143.84;32.96;44833.91;5141828;27;20463;-72
2022/08/29 09:08:49;;;;;;;41.20;7.60;;;;;;;-143.84;32.92;44839.63;5113685;27;20494;-72
2022/08/29 09:11:25;;;;;;;50.20;7.20;;;;;;;-143.84;33.08;44839.63;5112840;27;20478;-72
2022/08/29 09:14:03;;;;;;;38.63;6.53;;;;;;;-143.84;31.77;44811.06;5115180;27;20457;-72
2022/08/29 09:16:35;;;;;;;39.93;6.70;;;;;;;-143.84;30.96;44778.69;5127320;27;20944;-72
2022/08/29 09:19:05;;;;;;;27.37;5.77;;;;;;;-143.84;32.43;44786.31;5116326;27;20447;-72
2022/08/29 09:21:42;;;;;;;61.10;6.73;;;;;;;-143.84;32.12;44803.44;5146472;27;20449;-73
2022/08/29 09:24:17;;;;;;;31.40;6.93;;;;;;;-143.84;32.43;44824.38;5142198;27;20467;-74
2022/08/29 09:26:44;;;;;;;27.60;6.00;;;;;;;-143.84;33.06;44780.59;5111528;27;20452;-73
2022/08/29 09:29:12;;;;;;;45.50;7.37;;;;;;;-143.84;32.89;44841.53;5147641;27;20457;-73
2022/08/29 09:31:40;;;;;;;39.03;5.80;;;;;;;-143.84;33.09;44778.69;5147273;27;20875;-74
2022/08/29 09:34:14;;;;;;;36.00;5.70;;;;;;;-143.84;33.65;44801.53;5127360;27;20473;-73
2022/08/29 09:36:45;;;;;;;33.23;6.40;;;;;;;-143.84;33.65;44833.91;5130287;27;20447;-74
2022/08/29 09:39:19;;;;;;;58.07;7.00;;;;;;;-143.84;33.22;44799.63;5145554;27;20484;-74
2022/08/29 09:41:49;;;;;;;34.10;6.87;;;;;;;-143.84;33.45;44843.44;5113669;27;20453;-81
2022/08/29 09:44:24;;;;;;;40.40;6.37;;;;;;;-143.84;33.61;44805.34;5128233;27;20967;-81
2022/08/29 09:47:10;;;;;;;37.70;6.00;;;;;;;-143.84;33.37;44832.00;5120879;27;20452;-81
2022/08/29 09:49:39;;;;;;;46.17;7.13;;;;;;;-143.84;34.25;44776.78;5127833;27;20423;-81
2022/08/29 09:52:13;;;;;;;46.83;6.70;;;;;;;-143.84;34.68;44824.38;5127190;27;20822;-81
2022/08/29 09:54:42;;;;;;;32.60;6.17;;;;;;;-143.84;36.07;44795.81;5115893;28;20482;-81
2022/08/29 09:57:13;;;;;;;31.63;6.57;;;;;;;-143.84;35.33;44851.03;5119405;27;20434;-82
2022/08/29 09:59:44;;;;;;;29.80;5.77;;;;;;;-143.84;34.00;44809.16;5133479;27;20529;-81
2022/08/29 10:02:23;;;;;;;33.13;6.07;;;;;;;-143.84;34.70;44845.31;5126819;27;20442;-81
2022/08/29 10:04:54;;;;;;;27.43;5.47;;;;;;;-143.84;34.85;44847.22;5115621;27;20438;-81
2022/08/29 10:07:27;;;;;;;26.70;6.00;;;;;;;-143.84;36.32;44868.19;5120279;27;20434;-81
2022/08/29 10:09:59;;;;;;;40.30;8.23;;;;;;;-143.84;36.33;44856.75;5125990;27;20449;-81
2022/08/29 10:12:36;;;;;;;40.10;5.93;;;;;;;-143.84;37.69;44847.22;5113134;27;20996;-81
2022/08/29 10:15:08;;;;;;;36.53;6.20;;;;;;;-143.84;36.05;44852.94;5117833;27;20474;-81
2022/08/29 10:20:35;;;;;;;26.17;6.67;;;;;;;-143.84;35.74;44841.53;5123810;28;20496;-81
2022/08/29 10:23:10;;;;;;;51.67;5.80;;;;;;;-143.84;35.99;44883.41;5121891;28;20438;-81
2022/08/29 10:25:40;;;;;;;34.27;6.30;;;;;;;-143.84;35.09;44870.09;5121821;27;20453;-81
2022/08/29 10:28:15;;;;;;;28.47;5.70;;;;;;;-143.84;35.86;44864.38;5127788;27;20446;-82
2022/08/29 10:30:50;;;;;;;31.70;6.80;;;;;;;-143.84;35.05;44837.72;5127656;27;20446;-81
2022/08/29 10:33:29;;;;;;;43.03;7.20;;;;;;;-143.84;33.87;44807.25;5121704;27;20457;-81
2022/08/29 10:36:01;;;;;;;34.47;6.43;;;;;;;-143.84;35.99;44841.53;5126013;27;20462;-81
2022/08/29 10:38:49;;;;;;;27.57;6.27;;;;;;;-143.84;36.62;44864.38;5126392;27;21041;-81
2022/08/29 10:41:31;;;;;;;36.97;6.40;;;;;;;-143.84;39.16;44847.22;5148462;27;20445;-81
2022/08/29 10:44:16;;;;;;;36.77;6.43;;;;;;;-143.84;40.52;44839.63;5125274;27;20442;-81
2022/08/29 10:47:06;;;;;;;25.50;5.57;;;;;;;-143.84;40.87;44818.66;5119010;27;20441;-82
2022/08/29 10:49:48;;;;;;;28.23;6.30;;;;;;;-143.84;43.42;44835.81;5120039;27;20458;-81
2022/08/29 10:52:23;;;;;;;48.40;6.53;;;;;;;-143.84;39.57;44828.19;5128497;27;20499;-82
2022/08/29 10:55:00;;;;;;;42.87;7.00;;;;;;;-143.84;42.50;44811.06;5128940;27;20479;-81
2022/08/29 10:57:47;;;;;;;48.20;6.33;;;;;;;-143.84;41.27;44822.47;5121663;27;21016;-82
2022/08/29 11:00:19;;;;;;;44.27;6.93;;;;;;;-143.84;42.12;44784.41;5134068;27;20522;-81
2022/08/29 11:02:52;;;;;;;34.13;6.27;;;;;;;-143.84;42.42;44839.63;5128642;27;20452;-82
2022/08/29 11:05:25;;;;;;;51.77;7.30;;;;;;;-143.84;41.33;44854.84;5133695;27;20450;-82
2022/08/29 11:07:56;;;;;;;47.13;6.57;;;;;;;-143.84;40.99;44845.31;5131574;27;20441;-81
2022/08/29 11:10:28;;;;;;;37.57;7.03;;;;;;;-143.84;37.80;44845.31;5138274;27;20835;-81
2022/08/29 11:12:58;;;;;;;33.87;6.07;;;;;;;-143.84;37.44;44852.94;5137120;27;20861;-79
2022/08/29 11:15:31;;;;;;;31.10;5.50;;;;;;;-143.84;37.35;44833.91;5123819;27;20486;-77
2022/08/29 11:18:20;;;;;;;36.93;6.47;;;;;;;-143.84;39.95;44854.84;5124547;27;20446;-80
2022/08/29 11:20:52;;;;;;;36.63;6.70;;;;;;;-143.84;41.12;44852.94;5120307;27;20435;-79
2022/08/29 11:23:30;;;;;;;44.07;6.63;;;;;;;-143.84;41.32;44862.47;5129541;27;21033;-79
2022/08/29 11:26:05;;;;;;;37.00;7.00;;;;;;;-143.84;40.95;44851.03;5135200;27;20443;-79